Time;durP1;ratioP1;P1;durP2;ratioP2;P2;SDS_P1;SDS_P2;PMS_P1;PMS_P2;Temp;Humidity;BMP_temperature;BMP_pressure;BME280_temperature;BME280_humidity;BME280_pressure;Samples;Min_cycle;Max_cycle;Signal;HPM_P1;HPM_P2
2023/02/21 02:14:55;;;;;;;10.00;2.67;;;;;;;;;;4965984;28;20462;-69
2023/02/21 02:17:23;;;;;;;13.17;2.90;;;;;;;;;;4957262;28;20540;-69
2023/02/21 02:19:58;;;;;;;11.47;2.80;;;;;;;;;;4962296;28;21053;-69
2023/02/21 02:22:42;;;;;;;12.37;3.40;;;;;;;;;;4962147;28;20429;-69
2023/02/21 02:25:10;;;;;;;12.63;3.23;;;;;;;;;;4963333;28;20494;-68
2023/02/21 02:27:49;;;;;;;8.10;2.63;;;;;;;;;;4963246;28;20840;-68
2023/02/21 02:30:40;;;;;;;11.50;3.03;;;;;;;;;;4962537;28;20965;-70
2023/02/21 02:33:24;;;;;;;8.47;2.40;;;;;;;;;;4935144;28;20955;-69
2023/02/21 02:35:54;;;;;;;15.67;3.80;;;;;;;;;;4958858;28;20448;-69
2023/02/21 02:38:29;;;;;;;8.80;2.60;;;;;;;;;;4946439;28;20990;-68
2023/02/21 02:41:00;;;;;;;11.73;2.50;;;;;;;;;;4958989;28;20446;-68
2023/02/21 02:43:30;;;;;;;10.13;2.93;;;;;;;;;;4961726;28;20426;-69
2023/02/21 02:45:57;;;;;;;8.07;2.80;;;;;;;;;;4961558;28;20868;-69
2023/02/21 02:48:32;;;;;;;10.30;2.87;;;;;;;;;;4958483;28;21231;-69
2023/02/21 02:50:59;;;;;;;11.67;3.27;;;;;;;;;;4962467;28;20429;-68
2023/02/21 02:53:26;;;;;;;11.90;3.50;;;;;;;;;;4961372;28;20520;-68
2023/02/21 02:55:59;;;;;;;11.13;3.23;;;;;;;;;;4961606;28;20442;-68
2023/02/21 02:58:26;;;;;;;13.80;3.80;;;;;;;;;;4967697;28;20441;-69
2023/02/21 03:01:12;;;;;;;17.60;3.50;;;;;;;;;;4974182;23;20509;-72
2023/02/21 03:03:37;;;;;;;9.13;3.33;;;;;;;;;;4917639;28;20464;-72
2023/02/21 03:06:12;;;;;;;13.33;3.80;;;;;;;;;;4943167;28;20447;-72
2023/02/21 03:08:46;;;;;;;11.70;3.40;;;;;;;;;;4968436;28;20166;-70
2023/02/21 03:11:19;;;;;;;12.83;4.03;;;;;;;;;;4968708;28;20426;-70
2023/02/21 03:13:44;;;;;;;14.03;3.77;;;;;;;;;;4966954;28;20541;-70
2023/02/21 03:16:18;;;;;;;12.67;4.00;;;;;;;;;;4969210;28;20841;-70
2023/02/21 03:18:43;;;;;;;9.33;3.80;;;;;;;;;;4964171;28;20641;-70
2023/02/21 03:21:15;;;;;;;11.37;4.30;;;;;;;;;;4969166;28;20448;-70
2023/02/21 03:23:43;;;;;;;15.90;4.63;;;;;;;;;;4967162;28;20206;-70
2023/02/21 03:26:09;;;;;;;13.57;3.97;;;;;;;;;;4969118;28;20465;-70
2023/02/21 03:28:35;;;;;;;17.17;4.30;;;;;;;;;;4966306;28;20425;-70
2023/02/21 03:31:02;;;;;;;14.00;4.03;;;;;;;;;;4964748;28;20477;-70
2023/02/21 03:33:27;;;;;;;15.07;4.00;;;;;;;;;;4947757;28;20446;-70
2023/02/21 03:35:53;;;;;;;12.50;3.70;;;;;;;;;;4961544;28;20434;-70
2023/02/21 03:38:18;;;;;;;17.47;4.53;;;;;;;;;;4950797;28;20193;-70
2023/02/21 03:40:43;;;;;;;14.03;4.20;;;;;;;;;;4969466;28;20206;-70
2023/02/21 03:43:09;;;;;;;11.13;3.23;;;;;;;;;;4965763;28;20171;-72
2023/02/21 03:45:35;;;;;;;10.60;3.53;;;;;;;;;;4952406;28;20214;-70
2023/02/21 03:48:00;;;;;;;16.63;4.50;;;;;;;;;;4948347;28;20222;-70
2023/02/21 03:50:25;;;;;;;13.37;3.80;;;;;;;;;;4951837;28;20909;-70
2023/02/21 03:52:51;;;;;;;9.30;3.20;;;;;;;;;;4965375;28;20616;-69
2023/02/21 03:55:16;;;;;;;15.77;4.47;;;;;;;;;;4952883;28;20542;-70
2023/02/21 03:57:42;;;;;;;17.07;3.80;;;;;;;;;;4967961;28;20273;-70
2023/02/21 04:00:08;;;;;;;10.20;3.17;;;;;;;;;;4964133;28;20702;-70
2023/02/21 04:02:33;;;;;;;17.30;4.37;;;;;;;;;;4949470;28;20205;-70
2023/02/21 04:04:59;;;;;;;10.00;4.30;;;;;;;;;;4966776;28;20196;-71
2023/02/21 04:07:24;;;;;;;12.57;3.63;;;;;;;;;;4949555;28;20311;-70
2023/02/21 04:09:50;;;;;;;13.63;3.90;;;;;;;;;;4966053;28;20221;-70
2023/02/21 04:12:15;;;;;;;10.67;3.27;;;;;;;;;;4967006;28;20226;-70
2023/02/21 04:14:40;;;;;;;16.83;4.50;;;;;;;;;;4966388;28;20185;-71
2023/02/21 04:17:06;;;;;;;16.60;4.00;;;;;;;;;;4963165;28;20182;-70
2023/02/21 04:19:31;;;;;;;10.80;4.17;;;;;;;;;;4951325;28;20190;-71
2023/02/21 04:21:56;;;;;;;12.03;3.40;;;;;;;;;;4967397;28;20265;-71
2023/02/21 04:24:21;;;;;;;14.10;4.00;;;;;;;;;;4967503;28;20178;-70
2023/02/21 04:26:47;;;;;;;10.00;4.00;;;;;;;;;;4966775;28;20580;-70
2023/02/21 04:29:12;;;;;;;17.50;4.87;;;;;;;;;;4961402;28;20186;-70
2023/02/21 04:31:37;;;;;;;9.57;4.20;;;;;;;;;;4949557;28;20210;-70
2023/02/21 04:34:03;;;;;;;15.70;4.70;;;;;;;;;;4967851;28;20190;-70
2023/02/21 04:36:28;;;;;;;15.73;4.20;;;;;;;;;;4968615;28;20193;-70
2023/02/21 04:38:53;;;;;;;14.23;5.00;;;;;;;;;;4966138;28;20779;-70
2023/02/21 04:41:19;;;;;;;12.83;4.53;;;;;;;;;;4949992;28;20202;-71
2023/02/21 04:43:44;;;;;;;14.87;4.83;;;;;;;;;;4966457;28;20640;-70
2023/02/21 04:46:15;;;;;;;11.83;5.63;;;;;;;;;;4965636;28;20318;-70
2023/02/21 04:48:50;;;;;;;14.33;5.20;;;;;;;;;;4944161;28;20217;-70
2023/02/21 04:51:17;;;;;;;10.60;5.03;;;;;;;;;;4965465;28;20456;-70
2023/02/21 04:53:42;;;;;;;12.13;5.20;;;;;;;;;;4967266;28;20417;-70
2023/02/21 04:56:08;;;;;;;10.13;4.97;;;;;;;;;;4967732;28;20417;-71
2023/02/21 04:58:33;;;;;;;19.63;6.30;;;;;;;;;;4964831;28;20548;-70
2023/02/21 05:00:58;;;;;;;15.97;5.33;;;;;;;;;;4952294;28;20237;-70
2023/02/21 05:03:24;;;;;;;10.40;4.83;;;;;;;;;;4964114;28;20217;-70
2023/02/21 05:05:49;;;;;;;16.90;4.43;;;;;;;;;;4970096;28;20175;-70
2023/02/21 05:08:15;;;;;;;14.40;4.63;;;;;;;;;;4971169;28;20215;-71
2023/02/21 05:10:40;;;;;;;12.23;4.60;;;;;;;;;;4943956;28;20210;-70
2023/02/21 05:13:05;;;;;;;15.73;5.27;;;;;;;;;;4966382;28;20178;-70
2023/02/21 05:15:30;;;;;;;14.07;5.00;;;;;;;;;;4966672;28;20567;-70
2023/02/21 05:17:55;;;;;;;8.43;4.80;;;;;;;;;;4964814;28;20194;-70
2023/02/21 05:20:21;;;;;;;10.60;4.63;;;;;;;;;;4968991;28;20325;-71
2023/02/21 05:22:47;;;;;;;14.77;7.57;;;;;;;;;;4969951;28;20640;-70
2023/02/21 05:25:17;;;;;;;18.30;4.43;;;;;;;;;;4954568;28;20569;-70
2023/02/21 05:27:42;;;;;;;16.63;5.67;;;;;;;;;;4952596;28;20924;-70
2023/02/21 05:30:08;;;;;;;13.80;4.13;;;;;;;;;;4953181;28;20845;-70
2023/02/21 05:32:33;;;;;;;14.37;4.30;;;;;;;;;;4961332;28;20216;-70
2023/02/21 05:34:59;;;;;;;16.83;4.50;;;;;;;;;;4969712;28;20178;-71
2023/02/21 05:37:24;;;;;;;11.00;4.00;;;;;;;;;;4968294;28;20214;-70
2023/02/21 05:39:49;;;;;;;13.80;4.13;;;;;;;;;;4951775;28;20211;-70
2023/02/21 05:42:15;;;;;;;17.10;3.80;;;;;;;;;;4968587;28;20193;-71
2023/02/21 05:44:42;;;;;;;16.23;4.70;;;;;;;;;;4968660;28;20225;-71
2023/02/21 05:47:08;;;;;;;12.53;4.67;;;;;;;;;;4962535;28;20226;-70
2023/02/21 05:49:33;;;;;;;14.83;3.90;;;;;;;;;;4951426;28;20447;-70
2023/02/21 05:51:58;;;;;;;18.23;5.47;;;;;;;;;;4969611;28;20182;-71
2023/02/21 05:54:24;;;;;;;12.10;4.23;;;;;;;;;;4970724;28;20261;-71
2023/02/21 05:56:49;;;;;;;10.43;3.63;;;;;;;;;;4954455;28;20643;-71
2023/02/21 05:59:15;;;;;;;17.03;4.20;;;;;;;;;;4970062;28;20262;-71
2023/02/21 06:01:41;;;;;;;13.50;4.53;;;;;;;;;;4951178;28;20211;-70
2023/02/21 06:04:06;;;;;;;17.17;4.40;;;;;;;;;;4968571;28;20808;-70
2023/02/21 06:06:32;;;;;;;11.30;3.73;;;;;;;;;;4966161;28;20213;-71
2023/02/21 06:08:58;;;;;;;11.67;3.67;;;;;;;;;;4967512;28;20187;-70
2023/02/21 06:11:27;;;;;;;11.00;4.27;;;;;;;;;;4968476;28;20434;-71
2023/02/21 06:13:53;;;;;;;17.00;4.47;;;;;;;;;;4968223;28;20666;-71
2023/02/21 06:16:19;;;;;;;16.23;4.83;;;;;;;;;;4965366;28;20426;-70
2023/02/21 06:18:44;;;;;;;19.17;4.60;;;;;;;;;;4965484;28;20524;-71
2023/02/21 06:21:09;;;;;;;10.83;3.87;;;;;;;;;;4968927;28;20258;-70
2023/02/21 06:23:34;;;;;;;17.60;4.73;;;;;;;;;;4968509;28;20614;-70
2023/02/21 06:26:00;;;;;;;14.37;4.67;;;;;;;;;;4969515;28;20171;-71
2023/02/21 06:28:29;;;;;;;10.60;3.83;;;;;;;;;;4969042;28;20545;-71
2023/02/21 06:30:54;;;;;;;17.97;4.70;;;;;;;;;;4967692;28;20210;-70
2023/02/21 06:33:19;;;;;;;13.73;4.40;;;;;;;;;;4966969;28;20414;-70
2023/02/21 06:35:45;;;;;;;14.70;4.50;;;;;;;;;;4961249;28;20639;-71
2023/02/21 06:38:10;;;;;;;16.63;5.77;;;;;;;;;;4960599;28;20175;-71
2023/02/21 06:40:35;;;;;;;17.10;5.00;;;;;;;;;;4952552;28;20793;-70
2023/02/21 06:43:01;;;;;;;14.37;4.80;;;;;;;;;;4968955;28;20206;-71
2023/02/21 06:45:26;;;;;;;14.00;4.13;;;;;;;;;;4967134;28;20626;-71
2023/02/21 06:47:51;;;;;;;17.23;4.70;;;;;;;;;;4952492;28;20221;-71
2023/02/21 06:50:16;;;;;;;18.73;4.30;;;;;;;;;;4968392;28;20210;-71
2023/02/21 06:52:42;;;;;;;13.63;4.60;;;;;;;;;;4970776;28;20395;-71
2023/02/21 06:55:07;;;;;;;17.50;4.47;;;;;;;;;;4968628;28;20178;-71
2023/02/21 06:57:32;;;;;;;15.60;5.07;;;;;;;;;;4968247;28;20178;-71
2023/02/21 06:59:58;;;;;;;13.07;5.20;;;;;;;;;;4966710;28;20214;-71
2023/02/21 07:02:23;;;;;;;15.70;4.90;;;;;;;;;;4967435;28;20186;-70
2023/02/21 07:04:49;;;;;;;16.80;4.93;;;;;;;;;;4952969;28;20695;-71
2023/02/21 07:07:15;;;;;;;14.43;4.37;;;;;;;;;;4964274;28;20215;-71
2023/02/21 07:09:40;;;;;;;17.50;4.67;;;;;;;;;;4950809;28;20186;-71
2023/02/21 07:12:07;;;;;;;20.83;5.00;;;;;;;;;;4966181;28;20426;-70
2023/02/21 07:14:32;;;;;;;16.27;5.00;;;;;;;;;;4950648;28;20270;-71
2023/02/21 07:16:59;;;;;;;16.90;5.43;;;;;;;;;;4974871;28;20425;-72
2023/02/21 07:19:24;;;;;;;17.83;5.27;;;;;;;;;;4953085;28;20265;-72
2023/02/21 07:21:49;;;;;;;17.63;5.37;;;;;;;;;;4964130;28;20549;-72
2023/02/21 07:24:15;;;;;;;16.43;5.13;;;;;;;;;;4950869;28;20213;-72
2023/02/21 07:26:40;;;;;;;18.90;6.63;;;;;;;;;;4959849;28;20215;-72
2023/02/21 07:29:05;;;;;;;13.63;5.17;;;;;;;;;;4966128;28;20210;-72
2023/02/21 07:31:31;;;;;;;18.30;7.27;;;;;;;;;;4968053;28;20607;-71
2023/02/21 07:33:56;;;;;;;18.40;7.10;;;;;;;;;;4952719;28;20171;-70
2023/02/21 07:36:22;;;;;;;20.30;7.33;;;;;;;;;;4952390;28;20182;-71
2023/02/21 07:38:47;;;;;;;20.70;7.37;;;;;;;;;;4953057;28;20190;-70
2023/02/21 07:41:13;;;;;;;18.37;7.47;;;;;;;;;;4966342;28;20310;-70
2023/02/21 07:43:38;;;;;;;20.97;7.30;;;;;;;;;;4968251;28;20183;-71
2023/02/21 07:46:08;;;;;;;24.17;9.23;;;;;;;;;;4964269;28;20488;-70
2023/02/21 07:48:33;;;;;;;19.07;8.00;;;;;;;;;;4966966;28;20209;-70
2023/02/21 07:50:58;;;;;;;36.00;12.97;;;;;;;;;;4966658;28;20488;-71
2023/02/21 07:53:23;;;;;;;25.37;9.27;;;;;;;;;;4963824;28;20182;-70
2023/02/21 07:55:49;;;;;;;22.73;9.30;;;;;;;;;;4965214;28;20189;-70
2023/02/21 07:58:14;;;;;;;18.40;6.40;;;;;;;;;;4946250;28;20607;-70
2023/02/21 08:00:39;;;;;;;14.83;6.10;;;;;;;;;;4960638;28;20206;-70
2023/02/21 08:03:05;;;;;;;18.70;6.97;;;;;;;;;;4963764;28;20187;-70
2023/02/21 08:05:30;;;;;;;20.10;7.10;;;;;;;;;;4967267;28;20187;-71
2023/02/21 08:07:55;;;;;;;15.47;6.00;;;;;;;;;;4963168;28;20311;-70
2023/02/21 08:10:22;;;;;;;14.07;7.13;;;;;;;;;;4963197;28;20215;-71
2023/02/21 08:12:47;;;;;;;13.40;6.70;;;;;;;;;;4961271;28;20229;-70
2023/02/21 08:15:12;;;;;;;16.63;6.87;;;;;;;;;;4966249;28;20414;-70
2023/02/21 08:17:37;;;;;;;19.47;7.27;;;;;;;;;;4945565;28;20660;-71
2023/02/21 08:20:04;;;;;;;17.90;6.27;;;;;;;;;;4950884;28;20198;-70
2023/02/21 08:22:29;;;;;;;17.50;6.93;;;;;;;;;;4950835;28;20190;-70
2023/02/21 08:24:55;;;;;;;19.07;6.93;;;;;;;;;;4949546;28;20438;-70
2023/02/21 08:27:20;;;;;;;15.60;7.17;;;;;;;;;;4948445;28;20218;-71
2023/02/21 08:29:50;;;;;;;19.17;7.90;;;;;;;;;;4968991;28;20666;-70
2023/02/21 08:32:15;;;;;;;16.27;7.20;;;;;;;;;;4968839;28;20187;-70
2023/02/21 08:34:43;;;;;;;14.00;5.77;;;;;;;;;;4947138;28;20453;-71
2023/02/21 08:37:16;;;;;;;13.43;6.60;;;;;;;;;;4949478;28;20186;-71
2023/02/21 08:39:49;;;;;;;21.53;7.37;;;;;;;;;;4947266;28;20443;-70
2023/02/21 08:42:15;;;;;;;17.93;7.43;;;;;;;;;;4951882;28;20430;-70
2023/02/21 08:44:44;;;;;;;13.47;7.33;;;;;;;;;;4966844;28;20424;-70
2023/02/21 08:47:09;;;;;;;18.17;8.10;;;;;;;;;;4935913;28;20573;-71
2023/02/21 08:49:38;;;;;;;21.60;8.10;;;;;;;;;;4969495;28;20413;-70
2023/02/21 08:52:04;;;;;;;19.00;7.60;;;;;;;;;;4966944;28;20190;-70
2023/02/21 08:54:29;;;;;;;16.90;8.37;;;;;;;;;;4951283;28;20927;-70
2023/02/21 08:56:55;;;;;;;14.30;8.93;;;;;;;;;;4942806;28;20269;-71
2023/02/21 08:59:20;;;;;;;18.83;9.40;;;;;;;;;;4951797;28;20190;-70
2023/02/21 09:01:46;;;;;;;22.37;10.67;;;;;;;;;;4963027;28;20214;-70
2023/02/21 09:04:11;;;;;;;23.33;10.13;;;;;;;;;;4945351;28;20623;-70
2023/02/21 09:06:36;;;;;;;27.17;9.93;;;;;;;;;;4966343;28;20202;-70
2023/02/21 09:09:01;;;;;;;23.80;11.13;;;;;;;;;;4947574;28;20701;-71
2023/02/21 09:11:27;;;;;;;20.03;11.07;;;;;;;;;;4993563;23;20224;-72
2023/02/21 09:13:53;;;;;;;22.37;11.10;;;;;;;;;;5003270;28;20173;-72
2023/02/21 09:16:19;;;;;;;25.93;10.67;;;;;;;;;;5004730;28;20177;-72
2023/02/21 09:18:51;;;;;;;23.47;11.50;;;;;;;;;;5000435;28;21007;-72
2023/02/21 09:21:16;;;;;;;21.83;11.83;;;;;;;;;;4995191;28;20210;-71
2023/02/21 09:23:42;;;;;;;30.70;13.00;;;;;;;;;;4987955;28;20420;-71
2023/02/21 09:26:07;;;;;;;23.43;11.80;;;;;;;;;;4987453;28;20181;-72
2023/02/21 09:28:32;;;;;;;17.23;11.10;;;;;;;;;;4987192;28;20182;-72
2023/02/21 09:30:57;;;;;;;24.23;11.73;;;;;;;;;;4985699;28;20595;-72
2023/02/21 09:33:23;;;;;;;26.97;13.23;;;;;;;;;;4985684;28;20178;-72
2023/02/21 09:35:49;;;;;;;29.10;12.53;;;;;;;;;;4982752;28;20174;-72
2023/02/21 09:38:15;;;;;;;20.87;12.20;;;;;;;;;;4985870;28;20197;-72
2023/02/21 09:40:40;;;;;;;19.60;11.37;;;;;;;;;;4985059;28;20506;-71
2023/02/21 09:43:16;;;;;;;25.20;13.93;;;;;;;;;;4986723;28;20193;-72
2023/02/21 09:45:42;;;;;;;28.70;12.50;;;;;;;;;;4986546;28;20638;-72
2023/02/21 09:48:16;;;;;;;18.50;12.80;;;;;;;;;;4982731;28;20468;-71
2023/02/21 09:50:45;;;;;;;21.30;12.90;;;;;;;;;;4984641;28;20441;-72
2023/02/21 09:53:12;;;;;;;24.07;13.60;;;;;;;;;;4991566;28;20435;-72
2023/02/21 09:55:38;;;;;;;22.27;12.23;;;;;;;;;;4988032;28;20498;-72
2023/02/21 09:58:08;;;;;;;19.10;12.67;;;;;;;;;;4981898;28;20812;-72
2023/02/21 10:00:34;;;;;;;19.60;12.83;;;;;;;;;;4983723;28;20460;-72
2023/02/21 10:02:59;;;;;;;26.60;13.63;;;;;;;;;;4988105;28;20460;-72
2023/02/21 10:05:29;;;;;;;21.00;11.27;;;;;;;;;;4987657;28;20444;-72
2023/02/21 10:08:03;;;;;;;30.50;13.90;;;;;;;;;;4985260;28;20201;-72
2023/02/21 10:10:36;;;;;;;20.10;12.43;;;;;;;;;;4985893;28;20509;-71
2023/02/21 10:13:13;;;;;;;23.37;12.67;;;;;;;;;;4990392;28;20453;-72
2023/02/21 10:15:58;;;;;;;22.83;12.10;;;;;;;;;;4989571;28;20420;-72
2023/02/21 10:18:47;;;;;;;24.33;12.30;;;;;;;;;;4983775;28;20540;-72
2023/02/21 10:21:23;;;;;;;31.63;13.50;;;;;;;;;;4986998;28;20441;-72
2023/02/21 10:23:49;;;;;;;20.13;12.80;;;;;;;;;;4988633;28;20421;-72
2023/02/21 10:26:22;;;;;;;19.93;11.40;;;;;;;;;;4990256;28;20421;-72
2023/02/21 10:28:47;;;;;;;22.50;10.80;;;;;;;;;;4989134;28;20446;-71
2023/02/21 10:31:18;;;;;;;20.17;13.27;;;;;;;;;;4988783;28;20820;-72
2023/02/21 10:33:44;;;;;;;19.63;11.30;;;;;;;;;;4982202;28;20189;-72
2023/02/21 10:36:27;;;;;;;20.17;11.43;;;;;;;;;;4990979;28;20913;-71
2023/02/21 10:38:55;;;;;;;21.17;11.33;;;;;;;;;;4989067;28;20204;-71
2023/02/21 10:41:21;;;;;;;14.70;9.97;;;;;;;;;;4989465;28;20428;-72
2023/02/21 10:43:49;;;;;;;19.20;10.87;;;;;;;;;;4984609;28;20486;-72
2023/02/21 10:46:34;;;;;;;18.57;11.93;;;;;;;;;;4988233;28;20462;-72
2023/02/21 10:49:21;;;;;;;20.73;11.27;;;;;;;;;;4987817;28;20432;-72
2023/02/21 10:51:46;;;;;;;19.40;11.83;;;;;;;;;;4984270;28;20875;-72
2023/02/21 10:54:20;;;;;;;19.87;12.07;;;;;;;;;;4989117;28;20748;-72
2023/02/21 10:56:46;;;;;;;19.40;9.83;;;;;;;;;;4989733;28;20185;-72
2023/02/21 10:59:18;;;;;;;22.40;11.37;;;;;;;;;;4987157;28;20420;-72
2023/02/21 11:01:44;;;;;;;18.67;11.00;;;;;;;;;;4985605;28;20500;-72
2023/02/21 11:04:19;;;;;;;24.17;10.70;;;;;;;;;;4984933;28;20428;-72
2023/02/21 11:06:46;;;;;;;15.77;8.73;;;;;;;;;;4987217;28;20558;-72
2023/02/21 11:09:31;;;;;;;20.53;10.27;;;;;;;;;;4984701;28;20537;-72
2023/02/21 11:12:06;;;;;;;17.53;9.23;;;;;;;;;;4987494;28;20456;-72
2023/02/21 11:14:32;;;;;;;22.70;9.63;;;;;;;;;;4975428;28;20447;-72
2023/02/21 11:17:06;;;;;;;16.77;8.60;;;;;;;;;;4986430;28;20451;-72
2023/02/21 11:19:41;;;;;;;14.97;8.60;;;;;;;;;;4987340;28;20452;-71
2023/02/21 11:22:08;;;;;;;18.37;8.70;;;;;;;;;;4987282;28;20514;-72
2023/02/21 11:24:33;;;;;;;13.90;8.27;;;;;;;;;;4987382;28;20413;-72
2023/02/21 11:26:58;;;;;;;18.10;8.47;;;;;;;;;;4983133;28;21024;-72
2023/02/21 11:29:26;;;;;;;23.97;9.30;;;;;;;;;;4989649;28;20264;-72
2023/02/21 11:31:54;;;;;;;20.27;8.80;;;;;;;;;;4987790;28;20217;-72
2023/02/21 11:34:20;;;;;;;22.53;8.57;;;;;;;;;;4985236;28;20444;-72
2023/02/21 11:36:46;;;;;;;18.10;8.43;;;;;;;;;;4987815;28;20413;-72
2023/02/21 11:39:22;;;;;;;15.60;8.20;;;;;;;;;;4989445;28;20686;-72
2023/02/21 11:42:10;;;;;;;16.00;8.10;;;;;;;;;;4989103;28;20444;-72
2023/02/21 11:44:40;;;;;;;16.67;7.83;;;;;;;;;;4987332;28;20432;-72
2023/02/21 11:47:22;;;;;;;16.70;8.10;;;;;;;;;;4986191;28;21036;-72
2023/02/21 11:50:01;;;;;;;18.27;8.43;;;;;;;;;;4987519;28;20945;-72
2023/02/21 11:52:29;;;;;;;16.10;7.57;;;;;;;;;;4987905;28;20412;-72
2023/02/21 11:54:54;;;;;;;13.67;7.17;;;;;;;;;;4987120;28;20408;-72
2023/02/21 11:57:28;;;;;;;19.53;7.60;;;;;;;;;;4986415;28;20437;-72
2023/02/21 12:00:06;;;;;;;17.07;7.40;;;;;;;;;;4989603;28;20224;-72
2023/02/21 12:02:32;;;;;;;16.20;7.40;;;;;;;;;;4987388;28;20474;-72
2023/02/21 12:05:00;;;;;;;11.80;6.83;;;;;;;;;;4984934;28;20480;-72
2023/02/21 12:07:47;;;;;;;14.87;6.90;;;;;;;;;;4986043;28;20728;-72
2023/02/21 12:10:12;;;;;;;16.53;8.07;;;;;;;;;;4988666;28;20448;-72
2023/02/21 12:12:47;;;;;;;16.13;7.53;;;;;;;;;;4988744;28;20413;-72
2023/02/21 12:15:27;;;;;;;14.30;6.90;;;;;;;;;;4985732;28;20183;-72
2023/02/21 12:17:59;;;;;;;17.30;7.43;;;;;;;;;;4983736;28;20949;-72
2023/02/21 12:20:44;;;;;;;14.93;7.33;;;;;;;;;;4986256;28;20453;-72
2023/02/21 12:23:22;;;;;;;15.70;7.00;;;;;;;;;;4984388;28;20517;-72
2023/02/21 12:25:49;;;;;;;18.43;6.90;;;;;;;;;;4988625;28;20551;-72
2023/02/21 12:28:43;;;;;;;14.70;6.90;;;;;;;;;;4987978;28;20482;-72
2023/02/21 12:31:08;;;;;;;17.17;6.90;;;;;;;;;;4985276;28;20803;-72
2023/02/21 12:33:42;;;;;;;15.33;7.00;;;;;;;;;;4985807;28;20424;-72
2023/02/21 12:36:37;;;;;;;16.00;7.30;;;;;;;;;;4986843;28;20273;-72
2023/02/21 12:39:02;;;;;;;15.70;7.87;;;;;;;;;;4974135;28;23810;-72
2023/02/21 12:41:36;;;;;;;17.20;8.27;;;;;;;;;;4988700;28;20464;-72
2023/02/21 12:44:16;;;;;;;16.73;7.03;;;;;;;;;;4987287;28;20256;-72
2023/02/21 12:46:49;;;;;;;12.00;6.23;;;;;;;;;;4986510;28;20555;-72
2023/02/21 12:49:20;;;;;;;13.47;6.37;;;;;;;;;;4985720;28;20403;-72
2023/02/21 12:51:50;;;;;;;14.43;7.13;;;;;;;;;;4987328;28;20483;-72
2023/02/21 12:54:22;;;;;;;15.00;6.17;;;;;;;;;;4986787;28;20405;-72
2023/02/21 12:56:55;;;;;;;20.53;6.50;;;;;;;;;;4986545;28;20512;-72
2023/02/21 12:59:26;;;;;;;15.40;6.97;;;;;;;;;;4987417;28;20496;-72
2023/02/21 13:01:54;;;;;;;14.70;6.00;;;;;;;;;;4976912;28;20459;-72
2023/02/21 13:04:19;;;;;;;14.43;6.27;;;;;;;;;;4984530;28;20521;-72
2023/02/21 13:06:47;;;;;;;16.37;7.30;;;;;;;;;;4984934;28;20546;-72
2023/02/21 13:09:32;;;;;;;13.37;8.07;;;;;;;;;;4983796;28;20493;-72
2023/02/21 13:12:16;;;;;;;15.80;8.20;;;;;;;;;;4986679;28;20512;-72
2023/02/21 13:14:47;;;;;;;22.53;8.83;;;;;;;;;;4986696;28;20444;-72
2023/02/21 13:17:14;;;;;;;16.17;7.60;;;;;;;;;;4986737;28;20804;-72
2023/02/21 13:19:42;;;;;;;15.37;9.87;;;;;;;;;;4983720;28;20421;-72
2023/02/21 13:25:29;;;;;;;15.30;8.50;;;;;;;;;;4981609;28;20476;-72
2023/02/21 13:27:54;;;;;;;14.10;8.13;;;;;;;;;;4985198;28;20519;-72
2023/02/21 13:30:31;;;;;;;15.50;8.40;;;;;;;;;;4990430;28;20967;-72
2023/02/21 13:32:58;;;;;;;17.37;9.47;;;;;;;;;;4991179;28;20173;-72
2023/02/21 13:35:27;;;;;;;17.83;8.43;;;;;;;;;;4990265;28;20417;-72
2023/02/21 13:37:53;;;;;;;18.27;9.67;;;;;;;;;;4981043;28;20520;-72
2023/02/21 13:40:24;;;;;;;13.50;8.63;;;;;;;;;;4988797;28;20457;-72
2023/02/21 13:43:00;;;;;;;18.47;8.27;;;;;;;;;;4987678;28;20575;-72
2023/02/21 13:45:26;;;;;;;14.47;8.83;;;;;;;;;;4984235;28;20523;-72
2023/02/21 13:47:51;;;;;;;20.00;8.60;;;;;;;;;;4982607;28;20627;-72
2023/02/21 13:50:36;;;;;;;17.33;8.50;;;;;;;;;;4986047;28;20198;-72
2023/02/21 13:53:07;;;;;;;14.13;7.90;;;;;;;;;;4996012;28;20175;-72
2023/02/21 13:55:34;;;;;;;13.90;7.63;;;;;;;;;;4983475;28;20432;-72
2023/02/21 13:58:04;;;;;;;14.60;7.73;;;;;;;;;;4980095;28;20429;-72
2023/02/21 14:00:29;;;;;;;17.70;6.77;;;;;;;;;;4985735;28;20547;-72
2023/02/21 14:03:00;;;;;;;15.10;6.70;;;;;;;;;;4979622;28;20811;-72
2023/02/21 14:05:26;;;;;;;12.87;6.30;;;;;;;;;;4984539;28;20209;-72
2023/02/21 14:07:56;;;;;;;14.23;6.97;;;;;;;;;;4984632;28;20525;-72
2023/02/21 14:10:24;;;;;;;13.93;6.60;;;;;;;;;;4982155;28;20463;-72
2023/02/21 14:13:00;;;;;;;13.20;6.67;;;;;;;;;;4985480;28;20440;-72
2023/02/21 14:15:36;;;;;;;18.43;7.10;;;;;;;;;;4985251;28;20454;-71
2023/02/21 14:18:02;;;;;;;10.30;7.17;;;;;;;;;;4980138;28;20443;-72
2023/02/21 14:20:27;;;;;;;12.03;6.97;;;;;;;;;;4977563;28;20452;-71
2023/02/21 14:22:56;;;;;;;13.20;7.10;;;;;;;;;;4988756;28;20174;-71
2023/02/21 14:25:23;;;;;;;14.20;6.87;;;;;;;;;;4986598;28;20186;-71
2023/02/21 14:27:50;;;;;;;13.53;8.00;;;;;;;;;;4986555;28;20973;-71
2023/02/21 14:30:23;;;;;;;13.57;7.73;;;;;;;;;;4972786;28;20492;-71
2023/02/21 14:32:50;;;;;;;14.60;7.60;;;;;;;;;;4959860;28;20437;-71
2023/02/21 14:35:15;;;;;;;14.23;6.77;;;;;;;;;;4978617;28;20998;-71
2023/02/21 14:37:43;;;;;;;14.10;7.23;;;;;;;;;;4985138;28;20520;-72
2023/02/21 14:40:31;;;;;;;10.80;6.53;;;;;;;;;;4980616;28;21490;-71
2023/02/21 14:43:15;;;;;;;15.23;7.20;;;;;;;;;;4980961;28;20448;-72
2023/02/21 14:46:09;;;;;;;13.00;7.30;;;;;;;;;;4986719;28;20437;-72
2023/02/21 14:48:37;;;;;;;10.10;6.20;;;;;;;;;;4983692;28;21518;-72
2023/02/21 14:51:21;;;;;;;11.23;7.70;;;;;;;;;;4982883;28;20482;-72
2023/02/21 14:54:05;;;;;;;14.90;6.83;;;;;;;;;;4986315;28;20445;-72
2023/02/21 14:56:30;;;;;;;15.27;7.50;;;;;;;;;;4993535;28;20436;-72
2023/02/21 14:59:24;;;;;;;15.97;8.23;;;;;;;;;;4986779;28;20494;-72
2023/02/21 15:02:12;;;;;;;16.40;8.43;;;;;;;;;;4946739;28;20782;-72
2023/02/21 15:04:42;;;;;;;10.70;6.90;;;;;;;;;;4970581;28;20437;-71
2023/02/21 15:07:15;;;;;;;9.57;6.70;;;;;;;;;;4986224;28;20460;-72
2023/02/21 15:09:40;;;;;;;12.10;7.23;;;;;;;;;;4981540;28;20451;-72
2023/02/21 15:12:08;;;;;;;13.17;7.40;;;;;;;;;;4985501;28;20491;-72
2023/02/21 15:14:38;;;;;;;11.90;7.50;;;;;;;;;;4986827;28;20180;-72
2023/02/21 15:17:11;;;;;;;14.03;7.10;;;;;;;;;;4984427;28;20444;-72
2023/02/21 15:19:36;;;;;;;8.80;6.60;;;;;;;;;;4986039;28;20492;-72
2023/02/21 15:22:24;;;;;;;12.30;7.70;;;;;;;;;;4987954;28;20953;-72
2023/02/21 15:24:57;;;;;;;12.70;9.40;;;;;;;;;;4986208;28;20305;-72
2023/02/21 15:27:22;;;;;;;14.13;10.13;;;;;;;;;;4985059;28;20469;-72
2023/02/21 15:30:02;;;;;;;13.50;9.60;;;;;;;;;;4985690;28;20940;-72
2023/02/21 15:32:27;;;;;;;13.30;8.93;;;;;;;;;;4984073;28;20184;-72
2023/02/21 15:34:53;;;;;;;17.30;9.83;;;;;;;;;;4982466;28;20432;-72
2023/02/21 15:37:20;;;;;;;12.53;9.60;;;;;;;;;;4975002;28;20184;-71
2023/02/21 15:42:20;;;;;;;12.37;9.20;;;;;;;;;;4921827;28;20529;-71
2023/02/21 15:44:51;;;;;;;13.23;9.33;;;;;;;;;;4937577;29;20479;-71
2023/02/21 15:47:21;;;;;;;15.93;9.20;;;;;;;;;;4955967;28;20213;-71
2023/02/21 15:49:59;;;;;;;10.70;8.00;;;;;;;;;;4940569;28;20437;-71
2023/02/21 15:52:27;;;;;;;19.83;10.70;;;;;;;;;;4940202;28;20434;-71
2023/02/21 15:55:11;;;;;;;15.03;10.20;;;;;;;;;;4940628;28;20463;-71
2023/02/21 15:57:37;;;;;;;14.57;9.07;;;;;;;;;;4954397;28;20419;-71
2023/02/21 16:00:21;;;;;;;15.23;9.73;;;;;;;;;;4940209;28;20470;-70
2023/02/21 16:02:46;;;;;;;13.47;8.80;;;;;;;;;;4940236;29;20644;-71
2023/02/21 16:05:24;;;;;;;17.70;9.90;;;;;;;;;;4940494;28;20477;-71
2023/02/21 16:07:52;;;;;;;13.77;9.43;;;;;;;;;;4940224;28;20231;-71
2023/02/21 16:10:20;;;;;;;16.43;9.57;;;;;;;;;;4941125;29;20522;-71
2023/02/21 16:12:52;;;;;;;15.30;10.33;;;;;;;;;;4939868;29;20434;-71
2023/02/21 16:15:17;;;;;;;16.20;9.27;;;;;;;;;;4938653;29;20833;-71
2023/02/21 16:17:43;;;;;;;14.70;9.47;;;;;;;;;;4939601;29;20414;-71
2023/02/21 16:20:15;;;;;;;14.00;10.80;;;;;;;;;;4940055;29;20814;-71
2023/02/21 16:22:43;;;;;;;15.00;9.40;;;;;;;;;;4939185;28;20251;-70
2023/02/21 16:25:11;;;;;;;11.70;9.90;;;;;;;;;;4955326;28;20420;-71
2023/02/21 16:27:40;;;;;;;16.77;9.70;;;;;;;;;;4937841;28;20466;-71
2023/02/21 16:30:09;;;;;;;13.17;9.50;;;;;;;;;;4939980;28;20431;-71
2023/02/21 16:32:35;;;;;;;13.63;9.70;;;;;;;;;;4939111;29;20458;-71
2023/02/21 16:35:00;;;;;;;14.40;9.27;;;;;;;;;;4939727;29;20407;-71
2023/02/21 16:37:26;;;;;;;14.77;10.07;;;;;;;;;;4941246;28;20179;-71
2023/02/21 16:39:52;;;;;;;13.10;9.00;;;;;;;;;;4941183;28;20179;-71
2023/02/21 16:42:17;;;;;;;19.20;10.03;;;;;;;;;;4941604;28;20443;-71
2023/02/21 16:44:43;;;;;;;14.70;10.37;;;;;;;;;;4940944;28;20218;-71
2023/02/21 16:47:12;;;;;;;13.60;10.90;;;;;;;;;;4935677;28;20607;-71
2023/02/21 16:49:38;;;;;;;14.97;11.27;;;;;;;;;;4940863;28;20188;-71
2023/02/21 16:52:03;;;;;;;14.20;10.30;;;;;;;;;;4939425;28;21078;-70
2023/02/21 16:54:28;;;;;;;15.87;10.57;;;;;;;;;;4938522;29;20230;-71
2023/02/21 16:56:54;;;;;;;15.00;11.90;;;;;;;;;;4940394;28;20193;-71
2023/02/21 16:59:20;;;;;;;14.37;10.50;;;;;;;;;;4939644;28;20452;-71